Time;durP1;ratioP1;P1;durP2;ratioP2;P2;SDS_P1;SDS_P2;PMS_P1;PMS_P2;Temp;Humidity;BMP_temperature;BMP_pressure;BME280_temperature;BME280_humidity;BME280_pressure;Samples;Min_cycle;Max_cycle;Signal;HPM_P1;HPM_P2
2020/12/15 00:01:03;;;;;;;3.45;1.77;;;7.80;99.90;;;;;;5146242;27;20023;-83
2020/12/15 00:20:15;;;;;;;3.90;1.40;;;7.70;99.90;;;;;;5067598;28;20044;-82
2020/12/15 00:22:41;;;;;;;3.20;1.45;;;7.70;99.90;;;;;;5084433;28;20040;-83
2020/12/15 00:25:07;;;;;;;3.17;1.45;;;7.80;99.90;;;;;;5102546;28;20025;-83
2020/12/15 00:27:32;;;;;;;4.15;1.83;;;7.80;99.90;;;;;;5101408;28;20043;-83
2020/12/15 00:29:58;;;;;;;6.72;2.25;;;7.70;99.90;;;;;;5101271;28;20038;-83
2020/12/15 00:32:25;;;;;;;3.50;1.60;;;7.70;99.90;;;;;;5084551;28;20379;-83
2020/12/15 00:34:50;;;;;;;5.82;1.70;;;7.70;99.90;;;;;;5091950;28;20063;-83
2020/12/15 00:37:16;;;;;;;2.58;1.30;;;7.70;99.90;;;;;;5071056;28;20029;-82
2020/12/15 00:39:41;;;;;;;2.85;1.15;;;7.70;99.90;;;;;;5070930;28;20037;-83
2020/12/15 00:42:07;;;;;;;3.17;1.15;;;7.60;99.90;;;;;;5071063;28;20035;-83
2020/12/15 00:44:33;;;;;;;2.05;0.90;;;7.60;99.90;;;;;;5087472;28;20032;-83
2020/12/15 00:47:00;;;;;;;2.70;1.10;;;7.60;99.90;;;;;;5087449;28;20051;-82
2020/12/15 00:49:25;;;;;;;3.42;1.48;;;7.60;99.90;;;;;;5087098;28;20575;-82
2020/12/15 00:51:51;;;;;;;3.17;1.52;;;7.50;99.90;;;;;;5070745;28;20029;-82
2020/12/15 00:54:17;;;;;;;4.00;1.05;;;7.50;99.90;;;;;;5070700;28;20066;-81
2020/12/15 00:56:45;;;;;;;4.78;1.42;;;7.50;99.90;;;;;;5087475;28;20063;-82
2020/12/15 00:59:13;;;;;;;2.60;0.90;;;7.50;99.90;;;;;;5071040;28;20028;-83
2020/12/15 01:01:39;;;;;;;2.03;0.88;;;7.50;99.90;;;;;;5087109;28;20024;-82
2020/12/15 01:18:34;;;;;;;3.53;1.23;;;7.50;99.90;;;;;;4905556;29;20115;-82
2020/12/15 01:21:02;;;;;;;2.17;1.05;;;7.50;99.90;;;;;;4931860;29;20046;-83
2020/12/15 01:23:29;;;;;;;2.80;1.02;;;7.50;99.90;;;;;;4932193;29;20051;-81
2020/12/15 01:26:00;;;;;;;2.35;1.20;;;7.50;99.90;;;;;;4932726;29;20099;-82
2020/12/15 01:28:27;;;;;;;4.47;1.77;;;7.50;99.90;;;;;;4932052;29;20038;-82
2020/12/15 01:30:53;;;;;;;1.90;0.93;;;7.50;99.90;;;;;;4931921;29;20111;-82
2020/12/15 01:33:28;;;;;;;4.72;1.15;;;7.50;99.90;;;;;;4948074;29;20064;-83
2020/12/15 01:36:16;;;;;;;3.05;0.98;;;7.50;99.90;;;;;;4933218;29;20035;-82
2020/12/15 01:38:51;;;;;;;2.30;1.10;;;7.50;99.90;;;;;;4934575;29;20094;-83
2020/12/15 01:41:18;;;;;;;2.50;0.88;;;7.50;99.90;;;;;;4917199;29;20060;-82
2020/12/15 01:43:52;;;;;;;3.33;1.30;;;7.50;99.90;;;;;;4931882;29;20048;-82
2020/12/15 01:46:20;;;;;;;5.63;1.60;;;7.50;99.90;;;;;;4930819;29;20058;-83
2020/12/15 01:48:47;;;;;;;3.10;1.05;;;7.50;99.90;;;;;;4931803;29;20048;-82
2020/12/15 01:51:13;;;;;;;2.60;0.80;;;7.50;99.90;;;;;;4968232;28;20043;-82
2020/12/15 01:53:39;;;;;;;2.65;1.13;;;7.50;99.90;;;;;;5002415;28;20050;-82
2020/12/15 01:56:05;;;;;;;4.18;1.27;;;7.50;99.90;;;;;;5068867;28;20081;-82
2020/12/15 01:58:31;;;;;;;2.70;1.30;;;7.50;99.90;;;;;;5106372;28;20032;-83
2020/12/15 02:01:07;;;;;;;2.83;1.35;;;7.60;99.90;;;;;;5106112;28;20024;-83
2020/12/15 02:14:25;;;;;;;4.18;1.10;;;7.50;99.90;;;;;;5026584;28;20308;-83
2020/12/15 02:16:53;;;;;;;2.67;1.23;;;7.50;99.90;;;;;;5025923;28;20030;-81
2020/12/15 02:19:24;;;;;;;3.03;1.67;;;7.50;99.90;;;;;;5025976;28;20030;-82
2020/12/15 02:21:54;;;;;;;2.72;1.17;;;7.50;99.90;;;;;;5035000;28;20025;-82
2020/12/15 02:24:21;;;;;;;5.22;1.65;;;7.50;99.90;;;;;;5045582;28;20041;-82
2020/12/15 02:26:54;;;;;;;3.78;2.05;;;7.50;99.90;;;;;;5045392;28;20032;-83
2020/12/15 02:29:25;;;;;;;3.20;1.52;;;7.50;99.90;;;;;;5045425;28;20053;-83
2020/12/15 02:31:51;;;;;;;3.28;1.70;;;7.50;99.90;;;;;;5029096;28;20048;-83
2020/12/15 02:34:17;;;;;;;4.28;1.20;;;7.50;99.90;;;;;;5028790;28;20026;-82
2020/12/15 02:36:43;;;;;;;2.70;1.50;;;7.50;99.90;;;;;;5045127;28;20033;-82
2020/12/15 02:39:23;;;;;;;2.92;1.42;;;7.50;99.90;;;;;;5045364;28;20045;-83
2020/12/15 02:42:03;;;;;;;;;;;7.40;99.90;;;;;;5045792;28;20408;-82
2020/12/15 02:44:30;;;;;;;4.10;1.73;;;7.40;99.90;;;;;;5045260;28;19971;-83
2020/12/15 02:47:07;;;;;;;5.30;2.10;;;7.50;99.90;;;;;;5045145;28;20491;-83
2020/12/15 02:49:35;;;;;;;4.20;1.80;;;7.50;99.90;;;;;;5045016;28;20045;-83
2020/12/15 02:52:02;;;;;;;3.53;1.48;;;7.40;99.90;;;;;;5045013;28;20029;-84
2020/12/15 02:54:33;;;;;;;6.75;2.70;;;7.40;99.90;;;;;;5045205;28;20052;-83
2020/12/15 02:56:59;;;;;;;5.25;2.03;;;7.50;99.90;;;;;;5044804;28;20029;-83
2020/12/15 02:59:25;;;;;;;3.88;1.85;;;7.50;99.90;;;;;;5044843;28;20026;-83
2020/12/15 03:01:52;;;;;;;4.72;1.70;;;7.50;99.90;;;;;;5044904;28;20040;-83
2020/12/15 03:04:19;;;;;;;3.30;1.65;;;7.40;99.90;;;;;;5063613;22;20044;-81
2020/12/15 03:06:48;;;;;;;3.88;1.95;;;7.50;99.90;;;;;;5087008;28;20095;-82
2020/12/15 03:09:24;;;;;;;4.18;1.45;;;7.50;99.90;;;;;;5082339;22;20546;-82
2020/12/15 03:11:59;;;;;;;4.18;1.83;;;7.50;99.90;;;;;;5068579;28;20396;-82
2020/12/15 03:14:31;;;;;;;2.35;1.13;;;7.50;99.90;;;;;;5052819;28;20028;-82
2020/12/15 03:16:57;;;;;;;3.30;1.42;;;7.50;99.90;;;;;;5051859;28;20033;-83
2020/12/15 03:19:25;;;;;;;4.18;2.28;;;7.50;99.90;;;;;;5052150;28;20025;-82
2020/12/15 03:21:51;;;;;;;5.88;2.45;;;7.50;99.90;;;;;;5048350;28;20040;-82
2020/12/15 03:24:17;;;;;;;3.33;1.73;;;7.50;99.90;;;;;;5048385;28;20033;-82
2020/12/15 03:26:46;;;;;;;3.60;2.03;;;7.50;99.90;;;;;;5064640;28;20074;-81
2020/12/15 03:29:14;;;;;;;5.18;2.70;;;7.50;99.90;;;;;;5064852;28;20037;-82
2020/12/15 03:31:39;;;;;;;3.03;1.70;;;7.60;99.90;;;;;;5065265;28;20035;-82
2020/12/15 03:34:06;;;;;;;5.10;1.90;;;7.50;99.90;;;;;;5064508;28;20029;-82
2020/12/15 03:36:32;;;;;;;6.78;1.67;;;7.50;99.90;;;;;;5064561;28;20032;-83
2020/12/15 03:38:58;;;;;;;3.78;1.83;;;7.50;99.90;;;;;;5064645;28;20025;-83
2020/12/15 03:41:28;;;;;;;3.95;1.50;;;7.60;99.90;;;;;;5064312;28;20107;-82
2020/12/15 03:44:00;;;;;;;2.28;1.10;;;7.60;99.90;;;;;;5064995;28;20043;-83
2020/12/15 03:46:31;;;;;;;4.57;2.00;;;7.50;99.90;;;;;;5065049;28;20079;-83
2020/12/15 03:49:00;;;;;;;3.05;1.50;;;7.60;99.90;;;;;;5064440;28;20128;-82
2020/12/15 03:51:29;;;;;;;3.80;1.98;;;7.60;99.90;;;;;;5064171;28;20033;-82
2020/12/15 03:54:18;;;;;;;5.03;1.48;;;7.60;99.90;;;;;;5065607;28;20033;-83
2020/12/15 03:57:15;;;;;;;4.53;2.08;;;7.50;99.90;;;;;;5032086;28;20036;-82
2020/12/15 03:59:59;;;;;;;4.35;2.08;;;7.60;99.90;;;;;;5048117;28;20029;-83
2020/12/15 04:02:25;;;;;;;3.80;1.90;;;7.60;99.90;;;;;;5047994;28;20033;-83
2020/12/15 04:25:36;;;;;;;4.85;2.40;;;7.60;99.90;;;;;;5058205;28;824617;-83
2020/12/15 04:28:06;;;;;;;3.70;1.83;;;7.60;99.90;;;;;;5070823;28;20077;-83
2020/12/15 04:30:31;;;;;;;4.78;1.90;;;7.60;99.90;;;;;;5102366;28;20452;-83
2020/12/15 04:32:58;;;;;;;3.78;1.85;;;7.60;99.90;;;;;;5102188;28;20035;-82
2020/12/15 04:35:35;;;;;;;3.15;1.65;;;7.60;99.90;;;;;;5086828;28;20057;-83
2020/12/15 04:38:00;;;;;;;4.10;2.30;;;7.60;99.90;;;;;;5085324;28;20099;-83
2020/12/15 04:40:29;;;;;;;3.97;2.22;;;7.60;99.90;;;;;;5085346;28;20024;-83
2020/12/15 04:42:55;;;;;;;5.82;2.83;;;7.60;99.90;;;;;;5085253;28;20044;-82
2020/12/15 04:45:23;;;;;;;3.90;2.28;;;7.60;99.90;;;;;;5085282;28;20149;-82
2020/12/15 04:48:04;;;;;;;3.72;1.65;;;7.60;99.90;;;;;;5085972;28;20024;-82
2020/12/15 04:50:57;;;;;;;5.03;2.55;;;7.60;99.90;;;;;;5102181;28;20402;-82
2020/12/15 04:53:26;;;;;;;2.97;1.88;;;7.60;99.90;;;;;;5084841;28;20024;-82
2020/12/15 04:56:27;;;;;;;4.43;2.20;;;7.60;99.90;;;;;;5087391;28;20119;-82
2020/12/15 04:58:58;;;;;;;4.18;1.60;;;7.60;99.90;;;;;;5085237;28;20052;-83
2020/12/15 05:01:27;;;;;;;4.85;1.98;;;7.60;99.90;;;;;;5085355;28;20032;-82
2020/12/15 05:07:05;;;;;;;2.70;1.20;;;7.60;99.90;;;;;;5003390;28;20081;-82
2020/12/15 05:09:50;;;;;;;4.38;1.77;;;7.60;99.90;;;;;;5004191;28;20019;-82
2020/12/15 05:12:18;;;;;;;3.63;1.90;;;7.60;99.90;;;;;;5016232;23;20066;-82
2020/12/15 05:14:51;;;;;;;3.22;1.10;;;7.60;99.90;;;;;;5005714;28;20045;-82
2020/12/15 05:17:34;;;;;;;3.50;1.33;;;7.50;99.90;;;;;;5021484;28;20085;-82
2020/12/15 05:20:16;;;;;;;3.08;1.55;;;7.60;99.90;;;;;;5021757;28;20524;-83
2020/12/15 05:22:46;;;;;;;2.78;1.55;;;7.60;99.90;;;;;;4989069;28;20035;-82
2020/12/15 05:25:27;;;;;;;5.75;2.08;;;7.60;99.90;;;;;;5001746;28;20081;-82
2020/12/15 05:27:54;;;;;;;3.13;1.20;;;7.60;99.90;;;;;;4997606;28;20033;-82
2020/12/15 05:30:23;;;;;;;2.67;1.23;;;7.60;99.90;;;;;;4988745;28;20042;-83
2020/12/15 05:33:17;;;;;;;4.65;1.98;;;7.60;99.90;;;;;;4989527;28;20044;-83
2020/12/15 05:36:18;;;;;;;3.80;1.88;;;7.60;99.90;;;;;;4988736;28;20479;-82
2020/12/15 05:39:16;;;;;;;4.22;1.65;;;7.50;99.90;;;;;;4988528;28;20118;-82
2020/12/15 05:42:00;;;;;;;4.30;1.70;;;7.50;99.90;;;;;;4988586;28;20035;-82
2020/12/15 05:44:27;;;;;;;5.13;2.13;;;7.50;99.90;;;;;;4988696;28;20039;-82
2020/12/15 05:47:00;;;;;;;3.45;2.22;;;7.50;99.90;;;;;;4988472;28;20035;-82
2020/12/15 05:49:31;;;;;;;3.88;2.10;;;7.40;99.90;;;;;;4988392;28;20050;-82
2020/12/15 05:51:57;;;;;;;4.22;2.15;;;7.40;99.90;;;;;;4988374;28;20041;-82
2020/12/15 05:54:23;;;;;;;3.60;2.75;;;7.50;99.90;;;;;;4988517;28;20090;-82
2020/12/15 05:57:00;;;;;;;7.32;3.40;;;7.40;99.90;;;;;;4988168;28;20047;-82
2020/12/15 05:59:26;;;;;;;7.15;2.70;;;7.50;99.90;;;;;;4988402;28;20035;-82
2020/12/15 06:01:53;;;;;;;4.07;2.40;;;7.50;99.90;;;;;;4988577;28;20023;-82
2020/12/15 06:45:08;;;;;;;3.88;1.98;;;7.50;99.90;;;;;;4719052;30;20087;-83
2020/12/15 06:47:38;;;;;;;3.42;2.25;;;7.50;99.90;;;;;;4760102;29;20062;-83
2020/12/15 06:50:19;;;;;;;2.58;1.55;;;7.50;99.90;;;;;;4854188;29;20054;-83
2020/12/15 06:52:46;;;;;;;5.07;2.70;;;7.40;99.90;;;;;;4936273;29;20062;-83
2020/12/15 06:55:12;;;;;;;5.90;2.63;;;7.50;99.90;;;;;;4953498;29;20468;-82
2020/12/15 06:57:39;;;;;;;3.72;2.15;;;7.50;99.90;;;;;;4950928;29;20050;-83
2020/12/15 07:00:10;;;;;;;4.88;2.53;;;7.40;99.90;;;;;;4967054;29;20035;-84
2020/12/15 07:02:36;;;;;;;3.50;1.98;;;7.40;99.90;;;;;;4967530;28;20411;-82
2020/12/15 07:05:25;;;;;;;4.78;2.53;;;7.40;99.90;;;;;;4966197;28;20035;-83
2020/12/15 07:07:52;;;;;;;3.72;2.45;;;7.40;99.90;;;;;;4968435;28;20051;-81
2020/12/15 07:10:22;;;;;;;5.30;2.53;;;7.40;99.90;;;;;;4967092;29;20078;-84
2020/12/15 07:12:49;;;;;;;4.30;2.70;;;7.40;99.90;;;;;;4948787;29;20031;-84
2020/12/15 07:15:16;;;;;;;3.58;1.42;;;7.40;99.90;;;;;;4965816;28;20078;-83
2020/12/15 07:17:50;;;;;;;5.13;2.60;;;7.40;99.90;;;;;;4981563;28;20188;-82
2020/12/15 07:20:17;;;;;;;5.40;2.75;;;7.50;99.90;;;;;;4986462;28;20103;-83
2020/12/15 07:22:44;;;;;;;4.20;2.53;;;7.40;99.90;;;;;;4986152;28;20054;-84
2020/12/15 07:25:11;;;;;;;3.33;1.83;;;7.50;99.90;;;;;;4986289;28;20038;-83
2020/12/15 07:27:38;;;;;;;3.15;2.17;;;7.40;99.90;;;;;;4986183;28;20030;-82
2020/12/15 07:30:12;;;;;;;5.93;4.00;;;7.40;99.90;;;;;;4985541;28;20026;-82
2020/12/15 07:32:39;;;;;;;5.28;3.42;;;7.40;99.90;;;;;;4986456;28;20061;-83
2020/12/15 07:35:20;;;;;;;5.30;3.17;;;7.40;99.90;;;;;;4985887;28;20042;-83
2020/12/15 07:37:48;;;;;;;4.60;2.40;;;7.40;99.90;;;;;;4985764;28;20043;-83
2020/12/15 07:40:16;;;;;;;5.57;2.97;;;7.40;99.90;;;;;;4985875;28;20035;-83
2020/12/15 07:42:53;;;;;;;6.15;3.33;;;7.50;99.90;;;;;;4985003;28;20045;-83
2020/12/15 07:45:18;;;;;;;5.97;3.13;;;7.50;99.90;;;;;;5001764;28;20388;-83
2020/12/15 07:47:44;;;;;;;5.32;2.67;;;7.50;99.90;;;;;;4985956;28;20031;-83
2020/12/15 07:50:10;;;;;;;4.82;2.78;;;7.40;99.90;;;;;;4969659;28;20094;-85
2020/12/15 07:52:38;;;;;;;4.05;2.40;;;7.40;99.90;;;;;;4985438;28;20098;-84
2020/12/15 07:55:10;;;;;;;3.15;2.03;;;7.50;99.90;;;;;;4969397;28;20459;-84
2020/12/15 07:57:37;;;;;;;6.68;3.78;;;7.50;99.90;;;;;;4985469;28;20046;-83
2020/12/15 08:00:10;;;;;;;5.68;3.70;;;7.50;99.90;;;;;;4984228;28;20035;-83
2020/12/15 08:02:41;;;;;;;7.60;3.90;;;7.50;99.90;;;;;;4970651;28;20597;-82
2020/12/15 08:05:08;;;;;;;5.30;3.42;;;7.50;99.90;;;;;;4986531;28;20042;-82
2020/12/15 08:07:43;;;;;;;4.53;3.53;;;7.50;99.90;;;;;;5004091;28;20039;-83
2020/12/15 08:10:09;;;;;;;5.75;2.95;;;7.60;99.90;;;;;;5005495;28;20034;-82
2020/12/15 08:12:35;;;;;;;5.80;3.85;;;7.60;99.90;;;;;;5004461;28;20029;-82
2020/12/15 08:15:02;;;;;;;5.68;3.92;;;7.60;99.90;;;;;;4982054;28;20042;-83
2020/12/15 08:17:31;;;;;;;4.40;2.88;;;7.60;99.90;;;;;;4968235;28;20047;-82
2020/12/15 08:20:17;;;;;;;5.60;3.80;;;7.70;99.90;;;;;;5000881;28;20061;-83
2020/12/15 08:22:45;;;;;;;6.68;3.85;;;7.80;99.90;;;;;;5000988;28;20108;-82
2020/12/15 08:25:13;;;;;;;6.10;3.78;;;7.80;99.90;;;;;;4973226;28;20086;-83
2020/12/15 08:27:38;;;;;;;6.75;4.00;;;7.80;99.90;;;;;;4997902;28;20095;-83
2020/12/15 08:30:24;;;;;;;7.40;3.85;;;7.90;99.90;;;;;;4965222;29;20042;-83
2020/12/15 08:32:50;;;;;;;6.25;3.75;;;7.90;99.90;;;;;;4969085;28;20058;-82
2020/12/15 08:35:24;;;;;;;6.50;4.78;;;7.90;99.90;;;;;;5001527;28;20387;-83
2020/12/15 08:38:01;;;;;;;7.13;4.35;;;7.90;99.90;;;;;;4985287;28;20066;-83
2020/12/15 08:40:28;;;;;;;5.63;3.55;;;8.00;99.90;;;;;;5000632;28;20054;-82
2020/12/15 08:43:02;;;;;;;7.50;4.57;;;8.00;99.90;;;;;;4968527;28;20058;-83
2020/12/15 08:45:29;;;;;;;6.85;4.25;;;8.00;99.90;;;;;;5000325;28;20444;-83
2020/12/15 08:47:56;;;;;;;7.03;4.35;;;8.00;99.90;;;;;;5001172;28;20058;-85
2020/12/15 08:50:25;;;;;;;5.63;3.33;;;8.00;99.90;;;;;;5000639;28;20035;-83
2020/12/15 08:52:51;;;;;;;7.20;4.07;;;8.00;99.90;;;;;;5000958;28;20459;-83
2020/12/15 08:55:27;;;;;;;5.80;4.28;;;8.00;99.90;;;;;;5017665;28;20070;-83
2020/12/15 08:58:19;;;;;;;5.88;4.28;;;8.00;99.90;;;;;;4984035;28;20049;-83
2020/12/15 09:00:46;;;;;;;6.32;3.75;;;8.10;99.90;;;;;;4965180;28;20070;-83
2020/12/15 09:03:14;;;;;;;6.57;3.78;;;8.10;99.90;;;;;;4973902;28;20035;-85
2020/12/15 09:05:57;;;;;;;5.15;3.47;;;8.10;99.90;;;;;;5005630;28;20034;-85
2020/12/15 09:08:27;;;;;;;6.38;3.60;;;8.10;99.90;;;;;;4971454;28;20045;-85
2020/12/15 09:10:54;;;;;;;5.00;3.70;;;8.10;99.90;;;;;;4988178;28;20050;-82
2020/12/15 09:13:20;;;;;;;8.43;4.05;;;8.20;99.90;;;;;;4994969;28;20518;-84
2020/12/15 09:15:50;;;;;;;6.35;4.20;;;8.10;99.90;;;;;;4978898;28;20041;-83
2020/12/15 09:18:28;;;;;;;4.28;3.42;;;8.20;99.90;;;;;;5003291;28;20047;-82
2020/12/15 09:20:54;;;;;;;4.43;3.25;;;8.20;99.90;;;;;;5003613;28;20201;-83
2020/12/15 09:23:26;;;;;;;5.80;3.80;;;8.20;99.90;;;;;;4971519;28;20071;-82
2020/12/15 09:25:53;;;;;;;4.60;3.38;;;8.20;99.90;;;;;;5009355;28;20047;-83
2020/12/15 09:28:26;;;;;;;6.80;3.63;;;8.20;99.90;;;;;;4971203;28;20066;-83
2020/12/15 09:30:52;;;;;;;6.18;4.82;;;8.30;99.90;;;;;;4987955;28;20023;-84
2020/12/15 09:33:17;;;;;;;5.53;4.78;;;8.30;99.90;;;;;;5002998;28;20035;-83
2020/12/15 09:35:44;;;;;;;5.70;4.30;;;8.40;99.90;;;;;;5003549;28;20035;-82
2020/12/15 09:38:09;;;;;;;7.63;4.57;;;8.40;99.90;;;;;;4970832;28;20038;-83
2020/12/15 09:40:35;;;;;;;5.15;4.03;;;8.40;99.90;;;;;;5003239;28;20035;-83
2020/12/15 09:43:01;;;;;;;6.95;4.85;;;8.40;99.90;;;;;;5003515;28;20034;-82
2020/12/15 09:45:26;;;;;;;7.90;5.20;;;8.50;99.90;;;;;;5003523;28;20033;-82
2020/12/15 09:47:58;;;;;;;8.48;5.78;;;8.50;99.90;;;;;;5003241;28;20031;-83
2020/12/15 09:50:23;;;;;;;6.88;4.80;;;8.50;99.90;;;;;;5003109;28;20031;-82
2020/12/15 09:52:49;;;;;;;6.45;4.53;;;8.50;99.90;;;;;;5003055;28;20103;-82
2020/12/15 09:55:14;;;;;;;6.85;4.72;;;8.50;99.90;;;;;;5019773;28;20033;-83
2020/12/15 09:57:40;;;;;;;8.48;5.90;;;8.50;99.90;;;;;;5002879;28;20030;-83
2020/12/15 10:00:06;;;;;;;8.63;5.75;;;8.50;99.90;;;;;;4970517;28;20440;-83
2020/12/15 10:02:33;;;;;;;8.73;5.88;;;8.50;99.90;;;;;;4987262;28;20030;-83
2020/12/15 10:04:58;;;;;;;7.40;5.10;;;8.60;99.90;;;;;;5032481;23;20121;-83
2020/12/15 10:07:24;;;;;;;6.80;5.38;;;8.50;99.90;;;;;;5066130;28;20035;-82
2020/12/15 10:09:54;;;;;;;9.10;6.07;;;8.60;99.90;;;;;;5049022;28;20028;-82
2020/12/15 10:12:20;;;;;;;;;;;8.60;99.90;;;;;;5066518;28;20029;-82
2020/12/15 10:14:45;;;;;;;7.53;5.18;;;8.60;99.90;;;;;;5065513;28;20362;-83
2020/12/15 10:17:11;;;;;;;6.93;5.35;;;8.60;99.90;;;;;;5049068;28;20044;-86
2020/12/15 10:19:36;;;;;;;7.30;5.75;;;8.60;99.90;;;;;;5048814;28;20017;-84
2020/12/15 10:22:02;;;;;;;6.88;4.85;;;8.70;99.90;;;;;;5049505;28;20142;-85
2020/12/15 10:24:28;;;;;;;6.93;4.40;;;8.60;99.90;;;;;;5065900;28;20024;-81
2020/12/15 10:26:53;;;;;;;7.38;5.15;;;8.70;99.90;;;;;;5048019;28;20029;-81
2020/12/15 10:29:19;;;;;;;5.75;4.05;;;8.70;99.90;;;;;;5064673;28;20047;-81
2020/12/15 10:31:48;;;;;;;5.78;3.85;;;8.80;99.90;;;;;;5048699;28;20024;-81
2020/12/15 10:34:14;;;;;;;5.00;4.50;;;8.80;99.90;;;;;;5048482;28;20241;-80
2020/12/15 10:36:39;;;;;;;5.32;3.83;;;8.90;99.90;;;;;;5048681;28;20045;-81
2020/12/15 10:39:05;;;;;;;7.22;4.72;;;8.90;99.90;;;;;;5048495;28;20333;-82
2020/12/15 10:41:33;;;;;;;6.43;4.68;;;8.90;99.90;;;;;;5048734;28;20070;-81
2020/12/15 10:43:58;;;;;;;7.90;4.75;;;9.00;99.90;;;;;;5048855;28;20033;-82
2020/12/15 10:46:27;;;;;;;7.28;5.15;;;9.00;99.90;;;;;;5047255;28;20040;-82
2020/12/15 10:48:53;;;;;;;6.28;4.95;;;9.00;99.90;;;;;;5064303;28;20071;-82
2020/12/15 10:51:19;;;;;;;7.60;5.40;;;9.00;99.90;;;;;;5048348;28;20033;-81
2020/12/15 10:53:44;;;;;;;9.35;6.57;;;9.00;99.90;;;;;;5048508;28;20036;-82
2020/12/15 10:56:13;;;;;;;9.25;6.82;;;9.00;99.90;;;;;;5048092;28;20025;-81
2020/12/15 10:58:39;;;;;;;10.73;7.35;;;9.00;99.90;;;;;;5066119;28;20048;-81
2020/12/15 11:01:07;;;;;;;10.07;7.47;;;9.00;99.90;;;;;;5048368;28;20123;-82
2020/12/15 11:03:52;;;;;;;12.43;7.15;;;9.10;99.90;;;;;;5064605;28;20048;-81
2020/12/15 11:06:20;;;;;;;10.25;7.05;;;9.10;99.90;;;;;;5012419;28;20054;-82
2020/12/15 11:08:46;;;;;;;9.82;6.85;;;9.10;99.90;;;;;;5017516;28;20125;-84
2020/12/15 11:11:12;;;;;;;10.50;6.88;;;9.10;99.90;;;;;;5009701;28;20138;-82
2020/12/15 11:13:38;;;;;;;8.82;6.47;;;9.10;99.90;;;;;;4991005;28;20030;-82
2020/12/15 11:16:04;;;;;;;7.75;6.10;;;9.10;99.90;;;;;;4989376;28;20041;-82
2020/12/15 11:18:29;;;;;;;7.28;5.78;;;9.10;99.90;;;;;;4990427;28;20038;-82
2020/12/15 11:20:55;;;;;;;8.63;5.90;;;9.10;99.90;;;;;;4991143;28;20034;-82
2020/12/15 11:23:21;;;;;;;8.85;6.03;;;9.10;99.90;;;;;;5038999;28;20062;-83
2020/12/15 11:25:49;;;;;;;7.93;6.93;;;9.10;99.90;;;;;;4990527;28;20026;-83
2020/12/15 11:28:16;;;;;;;8.30;6.15;;;9.10;99.90;;;;;;4990769;28;20034;-82
2020/12/15 11:30:41;;;;;;;6.15;5.55;;;9.10;99.90;;;;;;5006215;28;20117;-83
2020/12/15 11:33:07;;;;;;;7.78;5.72;;;9.10;99.90;;;;;;4991171;28;20463;-82
2020/12/15 11:35:34;;;;;;;7.40;5.78;;;9.10;99.90;;;;;;5007031;28;20030;-82
2020/12/15 11:38:00;;;;;;;6.80;5.38;;;9.10;99.90;;;;;;4990595;28;20046;-83
2020/12/15 11:40:30;;;;;;;7.13;6.20;;;9.10;99.90;;;;;;5006783;28;20057;-83
2020/12/15 11:42:56;;;;;;;7.95;6.70;;;9.10;99.90;;;;;;5016088;28;20064;-83
2020/12/15 11:45:23;;;;;;;8.52;6.80;;;9.10;99.90;;;;;;5047840;28;20037;-84
2020/12/15 11:47:50;;;;;;;8.10;6.68;;;9.00;99.90;;;;;;5048329;28;20040;-83
2020/12/15 11:50:15;;;;;;;9.32;7.20;;;9.00;99.90;;;;;;5047665;28;20357;-82
2020/12/15 11:52:41;;;;;;;7.90;6.53;;;9.10;99.90;;;;;;5047196;28;20029;-83
2020/12/15 11:55:07;;;;;;;9.95;7.25;;;9.00;99.90;;;;;;5047416;28;20055;-82
2020/12/15 11:57:32;;;;;;;8.88;7.00;;;9.10;99.90;;;;;;5046899;28;20053;-85
2020/12/15 11:59:58;;;;;;;11.00;7.50;;;9.10;99.90;;;;;;5085294;28;20102;-84
2020/12/15 12:02:23;;;;;;;7.47;6.45;;;9.00;99.90;;;;;;5046609;28;20511;-85
2020/12/15 12:04:49;;;;;;;10.27;7.72;;;9.10;99.90;;;;;;5045966;22;20140;-85
2020/12/15 12:07:15;;;;;;;9.45;6.85;;;9.10;99.90;;;;;;5026422;23;20050;-82
2020/12/15 12:09:41;;;;;;;9.95;8.20;;;9.10;99.90;;;;;;5007907;28;20026;-85
2020/12/15 12:12:07;;;;;;;8.32;7.10;;;9.10;99.90;;;;;;5024498;28;20038;-85
2020/12/15 12:14:33;;;;;;;9.13;7.78;;;9.10;99.90;;;;;;4992033;28;20037;-83
2020/12/15 12:16:58;;;;;;;9.38;7.55;;;9.10;99.90;;;;;;5008162;28;20042;-84
2020/12/15 12:19:24;;;;;;;7.97;7.05;;;9.10;99.90;;;;;;5008114;28;20049;-82
2020/12/15 12:21:50;;;;;;;8.50;7.60;;;9.10;99.90;;;;;;5008226;28;20036;-82
2020/12/15 12:24:15;;;;;;;8.55;7.22;;;9.20;99.90;;;;;;5008320;28;20080;-86
2020/12/15 12:26:41;;;;;;;9.98;7.85;;;9.10;99.90;;;;;;5008152;28;20026;-85
2020/12/15 12:29:06;;;;;;;8.25;7.07;;;9.10;99.90;;;;;;5007845;28;20449;-84
2020/12/15 12:31:32;;;;;;;9.80;8.13;;;9.10;99.90;;;;;;5023651;28;20030;-84
2020/12/15 12:33:58;;;;;;;10.82;8.77;;;9.20;99.90;;;;;;5024083;28;20037;-85
2020/12/15 12:36:30;;;;;;;9.77;8.73;;;9.20;99.90;;;;;;5024196;28;20026;-83
2020/12/15 12:38:56;;;;;;;9.63;7.65;;;9.10;99.90;;;;;;5026287;28;20042;-85
2020/12/15 12:41:23;;;;;;;9.02;7.15;;;9.20;99.90;;;;;;5011664;28;20029;-83
2020/12/15 12:43:48;;;;;;;12.10;8.80;;;9.10;99.90;;;;;;4995597;28;20097;-82
2020/12/15 12:46:15;;;;;;;10.23;9.13;;;9.10;99.90;;;;;;5011377;28;20030;-83
2020/12/15 12:48:42;;;;;;;11.75;9.77;;;9.10;99.90;;;;;;5011477;28;20034;-84
2020/12/15 12:51:08;;;;;;;10.65;9.18;;;9.10;99.90;;;;;;5011373;28;20045;-83
2020/12/15 12:53:34;;;;;;;11.57;9.85;;;9.10;99.90;;;;;;4995815;28;20029;-84
2020/12/15 12:55:59;;;;;;;14.82;11.90;;;9.10;99.90;;;;;;5011698;28;20034;-85
2020/12/15 12:58:25;;;;;;;13.02;10.20;;;9.10;99.90;;;;;;5011718;28;20045;-82
2020/12/15 13:00:50;;;;;;;11.65;9.27;;;9.20;99.90;;;;;;5011453;28;20053;-82
2020/12/15 13:03:16;;;;;;;10.70;8.80;;;9.20;99.90;;;;;;5011515;28;20096;-84
2020/12/15 13:05:43;;;;;;;12.52;9.88;;;9.20;99.90;;;;;;5010793;28;20054;-83
2020/12/15 13:08:08;;;;;;;12.73;9.30;;;9.20;99.90;;;;;;4990961;28;20059;-83
2020/12/15 13:10:34;;;;;;;10.65;8.63;;;9.20;99.90;;;;;;5007812;28;20037;-84
2020/12/15 13:12:59;;;;;;;9.15;7.55;;;9.20;99.90;;;;;;5009442;28;20030;-84
2020/12/15 13:15:25;;;;;;;12.15;7.43;;;9.20;99.90;;;;;;4994739;28;20030;-86
2020/12/15 13:17:51;;;;;;;9.35;7.10;;;9.30;99.90;;;;;;5027251;28;20129;-83
2020/12/15 13:20:17;;;;;;;9.85;7.07;;;9.30;99.90;;;;;;5010927;28;20053;-84
2020/12/15 13:22:47;;;;;;;12.05;7.68;;;9.30;99.90;;;;;;5026944;28;20034;-83
2020/12/15 13:25:13;;;;;;;8.73;6.75;;;9.30;99.90;;;;;;4994406;28;20030;-85
2020/12/15 13:27:39;;;;;;;9.82;7.78;;;9.30;99.90;;;;;;4991034;28;20041;-84
2020/12/15 13:30:05;;;;;;;10.77;8.02;;;9.30;99.90;;;;;;5007245;28;20045;-86
2020/12/15 13:32:31;;;;;;;8.15;6.50;;;9.30;99.90;;;;;;4991435;28;20090;-83
2020/12/15 13:34:57;;;;;;;9.60;7.65;;;9.30;99.90;;;;;;4991040;28;20089;-83
2020/12/15 13:37:22;;;;;;;9.32;6.90;;;9.40;99.90;;;;;;5007055;28;20046;-84
2020/12/15 13:39:48;;;;;;;8.38;6.80;;;9.40;99.90;;;;;;5007044;28;20035;-85
2020/12/15 13:42:13;;;;;;;8.52;6.60;;;9.50;99.90;;;;;;5010198;28;20034;-83
2020/12/15 13:44:39;;;;;;;8.00;6.68;;;9.50;99.90;;;;;;5027894;28;20093;-85
2020/12/15 13:47:06;;;;;;;6.97;5.95;;;9.50;99.90;;;;;;5026692;28;20049;-82
2020/12/15 13:49:32;;;;;;;7.47;5.82;;;9.50;99.90;;;;;;5025369;28;20030;-84
2020/12/15 13:51:58;;;;;;;7.18;5.40;;;9.50;99.90;;;;;;5010161;28;20040;-83
2020/12/15 13:54:24;;;;;;;8.32;6.47;;;9.40;99.90;;;;;;5010111;28;20041;-82
2020/12/15 13:56:50;;;;;;;8.98;6.30;;;9.40;99.90;;;;;;5042117;28;20041;-83
2020/12/15 13:59:16;;;;;;;11.00;6.80;;;9.50;99.90;;;;;;5025989;28;20033;-83
2020/12/15 14:01:43;;;;;;;9.75;7.05;;;9.50;99.90;;;;;;5026144;28;20040;-84
2020/12/15 14:04:09;;;;;;;8.88;6.10;;;9.50;99.90;;;;;;5009930;28;20052;-83
2020/12/15 14:06:34;;;;;;;8.90;6.45;;;9.40;99.90;;;;;;5026151;28;20462;-84
2020/12/15 14:09:00;;;;;;;8.38;5.80;;;9.40;99.90;;;;;;5026501;28;20034;-85
2020/12/15 14:11:26;;;;;;;7.97;6.88;;;9.40;99.90;;;;;;4993245;28;20425;-83
2020/12/15 14:13:51;;;;;;;8.45;6.70;;;9.40;99.90;;;;;;4993321;28;20046;-82
2020/12/15 14:16:17;;;;;;;9.38;7.20;;;9.40;99.90;;;;;;5005685;28;20093;-84
2020/12/15 14:18:43;;;;;;;9.40;6.65;;;9.40;99.90;;;;;;5025813;28;20046;-82
2020/12/15 14:21:08;;;;;;;9.85;7.75;;;9.40;99.90;;;;;;5015295;28;20029;-83
2020/12/15 14:23:34;;;;;;;9.57;7.15;;;9.40;99.90;;;;;;4993553;28;20030;-82
2020/12/15 14:26:04;;;;;;;10.40;7.97;;;9.40;99.90;;;;;;4990441;28;20498;-82
2020/12/15 14:28:30;;;;;;;;;;;9.40;99.90;;;;;;5009243;28;20061;-84
2020/12/15 14:30:55;;;;;;;8.95;6.55;;;9.40;99.90;;;;;;5009827;28;19988;-82
2020/12/15 14:33:21;;;;;;;9.80;7.22;;;9.40;99.90;;;;;;4993258;28;20026;-83
2020/12/15 14:35:46;;;;;;;8.63;6.80;;;9.40;99.90;;;;;;5009357;28;20057;-82
2020/12/15 14:38:12;;;;;;;9.35;6.68;;;9.40;99.90;;;;;;4992878;28;20057;-84
2020/12/15 14:40:38;;;;;;;9.63;7.60;;;9.40;99.90;;;;;;5009317;28;20037;-84
2020/12/15 14:43:03;;;;;;;8.80;7.32;;;9.40;99.90;;;;;;5009247;28;20037;-82
2020/12/15 14:45:29;;;;;;;10.48;8.15;;;9.40;99.90;;;;;;4992669;28;20076;-83
2020/12/15 14:47:54;;;;;;;10.88;8.10;;;9.40;99.90;;;;;;5041527;28;20072;-82
2020/12/15 14:50:20;;;;;;;10.48;7.68;;;9.40;99.90;;;;;;4998600;28;20026;-85
2020/12/15 14:52:46;;;;;;;12.82;8.38;;;9.40;99.90;;;;;;4989873;28;20045;-83